Pagina principale
METAR-TAF:

METAR-TAF

Aeroporti :

Aeroporto di Milano-Linate

Milano, Italia

latitudine: 45-26N, longitudine: 009-17E, altezza: 107 m

Osservazione

Il bollettino è stato emesso 36 minuti fa, alle 04:20 UTC
Vento 1 kt da direzioni variabili
Temperature 18°C
Umidità 83%
Pressione 1015 hPa
Visibilità 10 km o più
Nubi sparse ad un'altezza di 7000 ft

METAR: LIML 030420Z VRB01KT 9999 SCT070 18/15 Q1015 NOSIG

Ora: 06:56 (04:56 UTC)

Previsione

Il bollettino è stato emesso 11 ore e 56 minuti fa, alle 17:00 UTC
Previsione valida dal 02 alle 18 UTC al 03 alle 18 UTC
Vento 6 kt da direzioni variabili
Visibilità 10 km o più
Poco nuvoloso ad un'altezza di 4000 ft
Probabilità 40% :
Temporaneamente
dal 02 alle 18 UTC al 03 alle 06 UTC
Visibilità: 4000 m
temporale, pioggia

TAF: LIML 021700Z 0218/0318 VRB06KT 9999 FEW040 PROB40 TEMPO 0218/0306 4000 TSRA

Osservazioni e previsioni meteorologiche di più di 4000 aeroporti (messaggi METAR e TAF).

Le stazioni disponibili sono rappresentate dai dischi gialli e rossi sulla carta.

Puntare il mouse per vedere il nome della stazione.

Clicca sopra per visualizzare le osservazioni e previsioni meteorologiche.

Per cambiare la mappa : fare clic sui pulsanti verdi con una croce nera per ingrandire, il pulsante verde con un trattino per diminuire, o sulla freccia verde per le mappe adiacenti.


METAR-TAF: